sensor_id;sensor_type;location;lat;lon;timestamp;pressure;altitude;pressure_sealevel;temperature;humidity
42811;BME280;28457;55.680;37.656;2023-01-28T14:53:31;100568.34;;;0.68;64.82
42811;BME280;28457;55.680;37.656;2023-01-28T14:56:03;100566.53;;;0.68;64.83
42811;BME280;28457;55.680;37.656;2023-01-28T14:58:38;100561.31;;;0.67;65.17
42811;BME280;28457;55.680;37.656;2023-01-28T15:01:16;100564.94;;;0.66;65.48
42811;BME280;28457;55.680;37.656;2023-01-28T15:03:46;100562.06;;;0.69;65.08
42811;BME280;28457;55.680;37.656;2023-01-28T15:06:14;100549.66;;;0.69;65.37
42811;BME280;28457;55.680;37.656;2023-01-28T15:08:44;100551.56;;;0.67;65.46
42811;BME280;28457;55.680;37.656;2023-01-28T15:11:13;100549.78;;;0.68;65.32
42811;BME280;28457;55.680;37.656;2023-01-28T15:13:43;100551.56;;;0.67;65.57
42811;BME280;28457;55.680;37.656;2023-01-28T15:16:15;100546.25;;;0.67;65.39
42811;BME280;28457;55.680;37.656;2023-01-28T15:18:44;100545.63;;;0.64;64.72
42811;BME280;28457;55.680;37.656;2023-01-28T15:21:14;100539.59;;;0.62;65.31
42811;BME280;28457;55.680;37.656;2023-01-28T15:23:47;100545.88;;;0.61;65.86
42811;BME280;28457;55.680;37.656;2023-01-28T15:26:17;100549.03;;;0.66;65.68
42811;BME280;28457;55.680;37.656;2023-01-28T15:28:46;100547.97;;;0.68;65.64
42811;BME280;28457;55.680;37.656;2023-01-28T15:31:17;100546.88;;;0.71;65.33
42811;BME280;28457;55.680;37.656;2023-01-28T15:33:54;100547.75;;;0.71;65.88
42811;BME280;28457;55.680;37.656;2023-01-28T15:36:22;100551.47;;;0.69;66.39
42811;BME280;28457;55.680;37.656;2023-01-28T15:38:53;100551.25;;;0.72;66.16
42811;BME280;28457;55.680;37.656;2023-01-28T15:41:21;100549.44;;;0.73;65.39
42811;BME280;28457;55.680;37.656;2023-01-28T15:43:51;100542.19;;;0.75;65.48
42811;BME280;28457;55.680;37.656;2023-01-28T15:46:19;100543.91;;;0.76;66.00
42811;BME280;28457;55.680;37.656;2023-01-28T15:48:48;100537.78;;;0.75;65.67
42811;BME280;28457;55.680;37.656;2023-01-28T15:51:18;100535.22;;;0.74;65.89
42811;BME280;28457;55.680;37.656;2023-01-28T15:53:48;100532.56;;;0.74;65.81
42811;BME280;28457;55.680;37.656;2023-01-28T15:56:22;100541.34;;;0.74;65.41
42811;BME280;28457;55.680;37.656;2023-01-28T15:58:51;100538.63;;;0.76;65.45
42811;BME280;28457;55.680;37.656;2023-01-28T16:01:19;100528.56;;;0.68;65.48
42811;BME280;28457;55.680;37.656;2023-01-28T16:03:58;100528.88;;;0.63;65.31
42811;BME280;28457;55.680;37.656;2023-01-28T16:06:31;100528.38;;;0.58;65.38
42811;BME280;28457;55.680;37.656;2023-01-28T16:09:02;100519.69;;;0.56;66.04
42811;BME280;28457;55.680;37.656;2023-01-28T16:11:33;100521.72;;;0.53;65.80
42811;BME280;28457;55.680;37.656;2023-01-28T16:14:02;100524.81;;;0.46;65.39
42811;BME280;28457;55.680;37.656;2023-01-28T16:16:32;100518.56;;;0.47;65.75
42811;BME280;28457;55.680;37.656;2023-01-28T16:19:01;100518.34;;;0.51;66.15
42811;BME280;28457;55.680;37.656;2023-01-28T16:21:31;100513.34;;;0.46;66.53
42811;BME280;28457;55.680;37.656;2023-01-28T16:24:01;100507.00;;;0.48;66.87
42811;BME280;28457;55.680;37.656;2023-01-28T16:26:30;100508.03;;;0.46;66.57
42811;BME280;28457;55.680;37.656;2023-01-28T16:29:01;100504.69;;;0.44;66.65
42811;BME280;28457;55.680;37.656;2023-01-28T16:31:38;100510.19;;;0.41;67.04
42811;BME280;28457;55.680;37.656;2023-01-28T16:34:07;100509.44;;;0.39;67.09
42811;BME280;28457;55.680;37.656;2023-01-28T16:36:35;100507.13;;;0.34;67.03
42811;BME280;28457;55.680;37.656;2023-01-28T16:39:04;100507.97;;;0.35;67.18
42811;BME280;28457;55.680;37.656;2023-01-28T16:41:32;100506.28;;;0.34;67.40
42811;BME280;28457;55.680;37.656;2023-01-28T16:44:03;100503.03;;;0.30;66.67
42811;BME280;28457;55.680;37.656;2023-01-28T16:46:32;100499.13;;;0.23;67.04
42811;BME280;28457;55.680;37.656;2023-01-28T16:49:00;100484.50;;;0.17;67.23
42811;BME280;28457;55.680;37.656;2023-01-28T16:51:29;100492.56;;;0.16;67.51
42811;BME280;28457;55.680;37.656;2023-01-28T16:53:58;100488.31;;;0.13;67.73
42811;BME280;28457;55.680;37.656;2023-01-28T16:56:26;100487.13;;;0.17;67.88
42811;BME280;28457;55.680;37.656;2023-01-28T16:59:13;100487.13;;;0.17;67.65
42811;BME280;28457;55.680;37.656;2023-01-28T17:01:42;100490.03;;;0.14;67.47
42811;BME280;28457;55.680;37.656;2023-01-28T17:04:10;100487.59;;;0.11;67.83
42811;BME280;28457;55.680;37.656;2023-01-28T17:06:39;100489.50;;;0.09;68.08
42811;BME280;28457;55.680;37.656;2023-01-28T17:09:09;100489.72;;;0.06;68.10
42811;BME280;28457;55.680;37.656;2023-01-28T17:11:37;100478.63;;;0.01;67.99
42811;BME280;28457;55.680;37.656;2023-01-28T17:14:06;100482.94;;;0.02;68.29
42811;BME280;28457;55.680;37.656;2023-01-28T17:16:36;100487.72;;;-0.03;68.28
42811;BME280;28457;55.680;37.656;2023-01-28T17:19:04;100488.66;;;-0.04;68.35
42811;BME280;28457;55.680;37.656;2023-01-28T17:21:33;100479.78;;;-0.03;68.80
42811;BME280;28457;55.680;37.656;2023-01-28T17:24:01;100480.28;;;0.02;68.42
42811;BME280;28457;55.680;37.656;2023-01-28T17:26:29;100478.63;;;0.01;68.77
42811;BME280;28457;55.680;37.656;2023-01-28T17:28:59;100484.75;;;0.02;68.55
42811;BME280;28457;55.680;37.656;2023-01-28T17:31:27;100482.94;;;0.02;68.60
42811;BME280;28457;55.680;37.656;2023-01-28T17:33:57;100475.13;;;0.01;68.54
42811;BME280;28457;55.680;37.656;2023-01-28T17:36:25;100473.19;;;0.03;69.36
42811;BME280;28457;55.680;37.656;2023-01-28T17:38:54;100476.38;;;0.08;68.98
42811;BME280;28457;55.680;37.656;2023-01-28T17:41:22;100474.56;;;0.08;68.97
42811;BME280;28457;55.680;37.656;2023-01-28T17:43:50;100468.44;;;0.08;68.99
42811;BME280;28457;55.680;37.656;2023-01-28T17:46:20;100471.19;;;0.06;69.01
42811;BME280;28457;55.680;37.656;2023-01-28T17:48:48;100473.72;;;0.08;68.68
42811;BME280;28457;55.680;37.656;2023-01-28T17:51:18;100460.50;;;0.08;68.65
42811;BME280;28457;55.680;37.656;2023-01-28T17:53:46;100459.66;;;0.07;68.95
42811;BME280;28457;55.680;37.656;2023-01-28T17:56:15;100462.28;;;0.07;68.35
42811;BME280;28457;55.680;37.656;2023-01-28T17:58:47;100459.53;;;0.09;68.35
42811;BME280;28457;55.680;37.656;2023-01-28T18:01:15;100455.19;;;0.08;68.47
42811;BME280;28457;55.680;37.656;2023-01-28T18:03:43;100458.69;;;0.08;68.40
42811;BME280;28457;55.680;37.656;2023-01-28T18:06:12;100459.41;;;0.10;68.63
42811;BME280;28457;55.680;37.656;2023-01-28T18:08:41;100454.09;;;0.10;68.68
42811;BME280;28457;55.680;37.656;2023-01-28T18:11:10;100459.53;;;0.09;68.75
42811;BME280;28457;55.680;37.656;2023-01-28T18:13:39;100451.56;;;0.09;69.13
42811;BME280;28457;55.680;37.656;2023-01-28T18:16:08;100458.47;;;0.11;69.13
42811;BME280;28457;55.680;37.656;2023-01-28T18:18:40;100448.81;;;0.10;68.91
42811;BME280;28457;55.680;37.656;2023-01-28T18:21:16;100448.19;;;0.07;68.74
42811;BME280;28457;55.680;37.656;2023-01-28T18:23:46;100439.94;;;0.11;68.83
42811;BME280;28457;55.680;37.656;2023-01-28T18:26:15;100448.09;;;0.08;68.70
42811;BME280;28457;55.680;37.656;2023-01-28T18:28:43;100451.69;;;0.07;68.84
42811;BME280;28457;55.680;37.656;2023-01-28T18:31:11;100448.50;;;0.02;69.02
42811;BME280;28457;55.680;37.656;2023-01-28T18:33:39;100444.28;;;-0.01;69.31
42811;BME280;28457;55.680;37.656;2023-01-28T18:36:08;100436.31;;;-0.01;69.23
42811;BME280;28457;55.680;37.656;2023-01-28T18:38:36;100434.66;;;-0.02;69.39
42811;BME280;28457;55.680;37.656;2023-01-28T18:41:06;100434.66;;;-0.02;70.00
42811;BME280;28457;55.680;37.656;2023-01-28T18:43:34;100441.53;;;0.01;69.47
42811;BME280;28457;55.680;37.656;2023-01-28T18:46:08;100434.22;;;0.05;70.01
42811;BME280;28457;55.680;37.656;2023-01-28T18:48:36;100439.59;;;0.03;70.31
42811;BME280;28457;55.680;37.656;2023-01-28T18:51:05;100433.25;;;0.06;70.04
42811;BME280;28457;55.680;37.656;2023-01-28T18:53:43;100430.50;;;0.07;70.22
42811;BME280;28457;55.680;37.656;2023-01-28T18:56:12;100425.94;;;0.09;69.73
42811;BME280;28457;55.680;37.656;2023-01-28T18:58:40;100415.47;;;0.08;69.98
42811;BME280;28457;55.680;37.656;2023-01-28T19:01:09;100417.97;;;0.09;70.30
42811;BME280;28457;55.680;37.656;2023-01-28T19:03:37;100416.94;;;0.12;70.50
42811;BME280;28457;55.680;37.656;2023-01-28T19:06:06;100402.72;;;0.13;70.15
42811;BME280;28457;55.680;37.656;2023-01-28T19:08:35;100398.25;;;0.13;70.26
42811;BME280;28457;55.680;37.656;2023-01-28T19:11:03;100410.56;;;0.14;70.02
42811;BME280;28457;55.680;37.656;2023-01-28T19:13:33;100417.44;;;0.17;70.04
42811;BME280;28457;55.680;37.656;2023-01-28T19:16:01;100408.41;;;0.19;70.01
42811;BME280;28457;55.680;37.656;2023-01-28T19:18:30;100407.44;;;0.20;70.23
42811;BME280;28457;55.680;37.656;2023-01-28T19:21:00;100402.28;;;0.19;70.14
42811;BME280;28457;55.680;37.656;2023-01-28T19:23:28;100407.34;;;0.22;70.18
42811;BME280;28457;55.680;37.656;2023-01-28T19:26:13;100398.78;;;0.18;70.36
42811;BME280;28457;55.680;37.656;2023-01-28T19:28:48;100410.31;;;0.17;69.97
42811;BME280;28457;55.680;37.656;2023-01-28T19:31:16;100401.66;;;0.15;69.97
42811;BME280;28457;55.680;37.656;2023-01-28T19:33:46;100395.19;;;0.19;70.04
42811;BME280;28457;55.680;37.656;2023-01-28T19:36:15;100395.63;;;0.13;69.83
42811;BME280;28457;55.680;37.656;2023-01-28T19:38:43;100390.31;;;0.13;69.97
42811;BME280;28457;55.680;37.656;2023-01-28T19:41:11;100402.84;;;0.11;70.09
42811;BME280;28457;55.680;37.656;2023-01-28T19:43:41;100399.97;;;0.14;70.02
42811;BME280;28457;55.680;37.656;2023-01-28T19:46:12;100401.53;;;0.17;70.36
42811;BME280;28457;55.680;37.656;2023-01-28T19:48:41;100402.16;;;0.20;69.80
42811;BME280;28457;55.680;37.656;2023-01-28T19:51:10;100396.63;;;0.23;69.62
42811;BME280;28457;55.680;37.656;2023-01-28T19:53:38;100399.06;;;0.27;69.71
42811;BME280;28457;55.680;37.656;2023-01-28T19:56:07;100392.72;;;0.29;69.40
42811;BME280;28457;55.680;37.656;2023-01-28T19:58:36;100392.81;;;0.28;69.70
42811;BME280;28457;55.680;37.656;2023-01-28T20:01:05;100391.13;;;0.27;69.81
42811;BME280;28457;55.680;37.656;2023-01-28T20:03:35;100383.16;;;0.27;69.58
42811;BME280;28457;55.680;37.656;2023-01-28T20:06:04;100384.13;;;0.26;70.08
42811;BME280;28457;55.680;37.656;2023-01-28T20:08:32;100381.38;;;0.27;70.38
42811;BME280;28457;55.680;37.656;2023-01-28T20:11:00;100378.00;;;0.25;69.95
42811;BME280;28457;55.680;37.656;2023-01-28T20:13:29;100373.75;;;0.22;70.17
42811;BME280;28457;55.680;37.656;2023-01-28T20:15:57;100375.34;;;0.25;70.45
42811;BME280;28457;55.680;37.656;2023-01-28T20:18:25;100377.03;;;0.26;70.29
42811;BME280;28457;55.680;37.656;2023-01-28T20:20:55;100370.91;;;0.26;70.10
42811;BME280;28457;55.680;37.656;2023-01-28T20:23:23;100364.84;;;0.23;70.12
42811;BME280;28457;55.680;37.656;2023-01-28T20:25:52;100362.09;;;0.25;70.15
42811;BME280;28457;55.680;37.656;2023-01-28T20:28:21;100368.97;;;0.28;70.14
42811;BME280;28457;55.680;37.656;2023-01-28T20:30:49;100362.59;;;0.30;70.14
42811;BME280;28457;55.680;37.656;2023-01-28T20:33:18;100361.63;;;0.31;69.90
42811;BME280;28457;55.680;37.656;2023-01-28T20:35:47;100360.16;;;0.27;69.87
42811;BME280;28457;55.680;37.656;2023-01-28T20:38:16;100354.25;;;0.23;69.80
42811;BME280;28457;55.680;37.656;2023-01-28T20:40:44;100356.81;;;0.25;70.65
42811;BME280;28457;55.680;37.656;2023-01-28T20:43:13;100353.28;;;0.24;70.41
42811;BME280;28457;55.680;37.656;2023-01-28T20:45:41;100346.91;;;0.27;70.35
42811;BME280;28457;55.680;37.656;2023-01-28T20:48:09;100339.31;;;0.22;70.52
42811;BME280;28457;55.680;37.656;2023-01-28T20:50:37;100344.41;;;0.26;70.46
42811;BME280;28457;55.680;37.656;2023-01-28T20:53:05;100333.06;;;0.23;70.46
42811;BME280;28457;55.680;37.656;2023-01-28T20:55:35;100333.91;;;0.24;70.68
42811;BME280;28457;55.680;37.656;2023-01-28T20:58:03;100338.13;;;0.27;70.93
42811;BME280;28457;55.680;37.656;2023-01-28T21:00:31;100336.94;;;0.31;70.69
42811;BME280;28457;55.680;37.656;2023-01-28T21:02:59;100341.41;;;0.30;70.87
42811;BME280;28457;55.680;37.656;2023-01-28T21:05:27;100336.84;;;0.32;71.09
42811;BME280;28457;55.680;37.656;2023-01-28T21:07:55;100339.00;;;0.38;70.77
42811;BME280;28457;55.680;37.656;2023-01-28T21:10:23;100335.06;;;0.44;70.69
42811;BME280;28457;55.680;37.656;2023-01-28T21:12:53;100337.09;;;0.40;70.19
42811;BME280;28457;55.680;37.656;2023-01-28T21:15:21;100326.59;;;0.39;70.37
42811;BME280;28457;55.680;37.656;2023-01-28T21:17:49;100328.41;;;0.38;70.67
42811;BME280;28457;55.680;37.656;2023-01-28T21:20:17;100324.69;;;0.41;69.99
42811;BME280;28457;55.680;37.656;2023-01-28T21:22:48;100317.59;;;0.41;70.29
42811;BME280;28457;55.680;37.656;2023-01-28T21:25:16;100313.03;;;0.43;70.29
42811;BME280;28457;55.680;37.656;2023-01-28T21:27:45;100311.94;;;0.46;70.38
42811;BME280;28457;55.680;37.656;2023-01-28T21:30:15;100297.63;;;0.48;70.37
42811;BME280;28457;55.680;37.656;2023-01-28T21:32:44;100296.03;;;0.46;69.50
42811;BME280;28457;55.680;37.656;2023-01-28T21:35:12;100299.03;;;0.41;70.23
42811;BME280;28457;55.680;37.656;2023-01-28T21:37:43;100303.72;;;0.38;69.64
42811;BME280;28457;55.680;37.656;2023-01-28T21:40:11;100306.00;;;0.31;70.31
42811;BME280;28457;55.680;37.656;2023-01-28T21:42:40;100305.91;;;0.33;70.23
42811;BME280;28457;55.680;37.656;2023-01-28T21:45:09;100303.94;;;0.35;70.36
42811;BME280;28457;55.680;37.656;2023-01-28T21:47:39;100302.41;;;0.32;70.62
42811;BME280;28457;55.680;37.656;2023-01-28T21:50:07;100296.22;;;0.32;70.19
42811;BME280;28457;55.680;37.656;2023-01-28T21:52:35;100299.84;;;0.31;70.28
42811;BME280;28457;55.680;37.656;2023-01-28T21:55:04;100293.84;;;0.29;70.61
42811;BME280;28457;55.680;37.656;2023-01-28T21:57:32;100296.34;;;0.30;70.52
42811;BME280;28457;55.680;37.656;2023-01-28T22:00:00;100287.44;;;0.31;70.48
42811;BME280;28457;55.680;37.656;2023-01-28T22:02:37;100286.59;;;0.31;71.01
42811;BME280;28457;55.680;37.656;2023-01-28T22:05:06;100278.78;;;0.29;70.70
42811;BME280;28457;55.680;37.656;2023-01-28T22:07:35;100279.72;;;0.28;70.83
42811;BME280;28457;55.680;37.656;2023-01-28T22:10:03;100282.72;;;0.23;71.41
42811;BME280;28457;55.680;37.656;2023-01-28T22:12:31;100281.03;;;0.22;71.17
42811;BME280;28457;55.680;37.656;2023-01-28T22:14:59;100282.50;;;0.27;71.45
42811;BME280;28457;55.680;37.656;2023-01-28T22:17:28;100272.88;;;0.26;71.51
42811;BME280;28457;55.680;37.656;2023-01-28T22:19:57;100273.34;;;0.31;71.56
42811;BME280;28457;55.680;37.656;2023-01-28T22:22:26;100270.72;;;0.31;71.29
42811;BME280;28457;55.680;37.656;2023-01-28T22:24:54;100268.66;;;0.34;71.14
42811;BME280;28457;55.680;37.656;2023-01-28T22:27:22;100265.31;;;0.32;71.65
42811;BME280;28457;55.680;37.656;2023-01-28T22:29:53;100252.16;;;0.31;71.68
42811;BME280;28457;55.680;37.656;2023-01-28T22:32:23;100263.28;;;0.36;71.04
42811;BME280;28457;55.680;37.656;2023-01-28T22:34:52;100254.97;;;0.40;71.28
42811;BME280;28457;55.680;37.656;2023-01-28T22:37:20;100251.13;;;0.44;71.45
42811;BME280;28457;55.680;37.656;2023-01-28T22:39:49;100243.63;;;0.38;71.27
42811;BME280;28457;55.680;37.656;2023-01-28T22:42:21;100245.94;;;0.43;71.70
42811;BME280;28457;55.680;37.656;2023-01-28T22:44:49;100243.91;;;0.46;71.45
42811;BME280;28457;55.680;37.656;2023-01-28T22:47:17;100242.94;;;0.47;71.53
42811;BME280;28457;55.680;37.656;2023-01-28T22:49:45;100238.94;;;0.42;71.40
42811;BME280;28457;55.680;37.656;2023-01-28T22:52:13;100238.09;;;0.41;71.87
42811;BME280;28457;55.680;37.656;2023-01-28T22:54:41;100227.25;;;0.44;71.80
42811;BME280;28457;55.680;37.656;2023-01-28T22:57:11;100227.63;;;0.40;71.73
42811;BME280;28457;55.680;37.656;2023-01-28T22:59:39;100223.88;;;0.42;71.71
42811;BME280;28457;55.680;37.656;2023-01-28T23:02:16;100223.78;;;0.44;71.64
42811;BME280;28457;55.680;37.656;2023-01-28T23:04:44;100217.50;;;0.45;71.95
42811;BME280;28457;55.680;37.656;2023-01-28T23:07:13;100217.41;;;0.46;71.92
42811;BME280;28457;55.680;37.656;2023-01-28T23:09:41;100208.34;;;0.49;71.59
42811;BME280;28457;55.680;37.656;2023-01-28T23:12:11;100211.59;;;0.53;71.95
42811;BME280;28457;55.680;37.656;2023-01-28T23:14:39;100206.31;;;0.53;71.45
42811;BME280;28457;55.680;37.656;2023-01-28T23:17:25;100202.94;;;0.51;71.66
42811;BME280;28457;55.680;37.656;2023-01-28T23:20:10;100195.72;;;0.53;71.79
42811;BME280;28457;55.680;37.656;2023-01-28T23:22:56;100203.56;;;0.54;71.86
42811;BME280;28457;55.680;37.656;2023-01-28T23:25:41;100197.41;;;0.54;71.08
42811;BME280;28457;55.680;37.656;2023-01-28T23:28:11;100196.31;;;0.56;71.12
42811;BME280;28457;55.680;37.656;2023-01-28T23:30:39;100195.94;;;0.50;71.28
42811;BME280;28457;55.680;37.656;2023-01-28T23:33:07;100182.97;;;0.46;71.23
42811;BME280;28457;55.680;37.656;2023-01-28T23:35:36;100172.97;;;0.50;72.04
42811;BME280;28457;55.680;37.656;2023-01-28T23:38:04;100171.84;;;0.53;71.45
42811;BME280;28457;55.680;37.656;2023-01-28T23:40:32;100170.41;;;0.48;71.80
42811;BME280;28457;55.680;37.656;2023-01-28T23:43:00;100184.25;;;0.52;71.34
42811;BME280;28457;55.680;37.656;2023-01-28T23:45:31;100177.06;;;0.54;71.42
42811;BME280;28457;55.680;37.656;2023-01-28T23:47:59;100178.13;;;0.52;71.07
42811;BME280;28457;55.680;37.656;2023-01-28T23:50:29;100181.84;;;0.38;71.15
42811;BME280;28457;55.680;37.656;2023-01-28T23:52:58;100186.91;;;0.41;71.40
42811;BME280;28457;55.680;37.656;2023-01-28T23:55:26;100186.53;;;0.45;71.03
42811;BME280;28457;55.680;37.656;2023-01-28T23:57:55;100174.13;;;0.46;70.68
